createdAt,value
2022-10-06T00:00:51.813Z,4.10
2022-10-06T00:01:51.799Z,3.60
2022-10-06T00:02:51.863Z,3.80
2022-10-06T00:03:51.779Z,3.90
2022-10-06T00:04:51.733Z,4.00
2022-10-06T00:05:51.779Z,4.10
2022-10-06T00:06:51.719Z,4.00
2022-10-06T00:07:51.669Z,4.20
2022-10-06T00:08:51.734Z,4.20
2022-10-06T00:09:51.702Z,4.30
2022-10-06T00:10:51.636Z,5.30
2022-10-06T00:11:51.639Z,5.30
2022-10-06T00:12:51.619Z,5.10
2022-10-06T00:13:51.598Z,4.80
2022-10-06T00:14:51.568Z,5.00
2022-10-06T00:15:51.643Z,4.50
2022-10-06T00:16:51.574Z,4.60
2022-10-06T00:17:51.546Z,4.50
2022-10-06T00:18:51.567Z,4.40
2022-10-06T00:19:51.645Z,4.20
2022-10-06T00:20:51.554Z,4.10
2022-10-06T00:21:51.486Z,4.00
2022-10-06T00:22:51.631Z,4.50
2022-10-06T00:23:51.465Z,3.70
2022-10-06T00:24:51.519Z,3.70
2022-10-06T00:25:51.468Z,3.40
2022-10-06T00:26:51.464Z,3.30
2022-10-06T00:27:51.423Z,3.70
2022-10-06T00:28:51.413Z,4.50
2022-10-06T00:29:51.392Z,3.70
2022-10-06T00:30:51.419Z,3.80
2022-10-06T00:31:51.386Z,3.90
2022-10-06T00:32:51.385Z,4.10
2022-10-06T00:33:51.339Z,4.30
2022-10-06T00:34:51.325Z,4.10
2022-10-06T00:35:51.324Z,4.10
2022-10-06T00:36:51.296Z,3.80
2022-10-06T00:37:51.308Z,4.20
2022-10-06T00:38:51.282Z,4.40
2022-10-06T00:39:51.281Z,5.10
2022-10-06T00:40:51.254Z,4.20
2022-10-06T00:41:51.308Z,4.00
2022-10-06T00:42:51.221Z,4.10
2022-10-06T00:43:51.310Z,4.30
2022-10-06T00:44:51.248Z,4.10
2022-10-06T00:45:51.405Z,4.30
2022-10-06T00:46:51.215Z,4.70
2022-10-06T00:47:51.168Z,4.10
2022-10-06T00:48:51.149Z,4.20
2022-10-06T00:49:51.142Z,3.90
2022-10-06T00:50:51.117Z,4.10
2022-10-06T00:51:51.189Z,4.40
2022-10-06T00:52:51.138Z,4.40
2022-10-06T00:53:51.122Z,4.20
2022-10-06T00:54:51.081Z,4.60
2022-10-06T00:55:51.049Z,4.10
2022-10-06T00:56:51.099Z,4.40
2022-10-06T00:57:51.169Z,4.60
2022-10-06T00:58:51.068Z,5.10
2022-10-06T00:59:51.045Z,3.90
2022-10-06T01:00:51.023Z,3.90
2022-10-06T01:01:51.043Z,4.20
2022-10-06T01:02:51.120Z,4.40
2022-10-06T01:03:50.944Z,4.60
2022-10-06T01:04:50.951Z,4.50
2022-10-06T01:05:50.913Z,4.50
2022-10-06T01:06:50.923Z,4.50
2022-10-06T01:07:51.011Z,4.70
2022-10-06T01:08:50.919Z,4.70
2022-10-06T01:09:50.870Z,4.60
2022-10-06T01:10:50.999Z,4.80
2022-10-06T01:11:50.870Z,4.70
2022-10-06T01:12:50.865Z,4.30
2022-10-06T01:13:50.851Z,4.20
2022-10-06T01:14:50.835Z,4.60
2022-10-06T01:15:50.838Z,4.50
2022-10-06T01:16:51.019Z,4.30
2022-10-06T01:17:50.851Z,4.20
2022-10-06T01:18:50.752Z,4.20
2022-10-06T01:19:50.755Z,3.80
2022-10-06T01:20:50.816Z,3.70
2022-10-06T01:21:50.722Z,3.60
2022-10-06T01:22:50.774Z,3.90
2022-10-06T01:23:50.709Z,4.00
2022-10-06T01:24:50.683Z,3.50
2022-10-06T01:25:50.678Z,3.50
2022-10-06T01:26:50.647Z,3.60
2022-10-06T01:27:50.637Z,3.70
2022-10-06T01:28:50.722Z,3.70
2022-10-06T01:29:50.668Z,3.90
2022-10-06T01:30:50.682Z,3.80
2022-10-06T01:31:50.598Z,3.60
2022-10-06T01:32:50.633Z,3.60
2022-10-06T01:33:50.582Z,3.70
2022-10-06T01:34:50.605Z,3.80
2022-10-06T01:35:50.535Z,3.70
2022-10-06T01:36:50.525Z,3.20
2022-10-06T01:37:50.515Z,3.40
2022-10-06T01:38:50.516Z,3.60
2022-10-06T01:39:50.475Z,3.50
2022-10-06T01:40:50.545Z,3.30
2022-10-06T01:41:50.483Z,3.30
2022-10-06T01:42:50.443Z,3.30
2022-10-06T01:43:50.462Z,2.90
2022-10-06T01:44:50.496Z,3.70
2022-10-06T01:45:50.472Z,3.10
2022-10-06T01:46:50.570Z,3.20
2022-10-06T01:47:50.381Z,3.00
2022-10-06T01:48:50.387Z,3.20
2022-10-06T01:49:50.396Z,3.40
2022-10-06T01:50:50.381Z,3.00
2022-10-06T01:51:50.417Z,2.80
2022-10-06T01:52:50.326Z,3.10
2022-10-06T01:53:50.383Z,3.10
2022-10-06T01:54:50.341Z,3.40
2022-10-06T01:55:50.295Z,3.10
2022-10-06T01:56:50.278Z,3.10
2022-10-06T01:57:50.259Z,3.10
2022-10-06T01:58:50.274Z,3.50
2022-10-06T01:59:54.568Z,3.20
2022-10-06T02:00:50.228Z,2.90
2022-10-06T02:01:50.273Z,3.10
2022-10-06T02:02:50.197Z,3.20
2022-10-06T02:03:50.182Z,3.20
2022-10-06T02:04:50.181Z,3.60
2022-10-06T02:05:50.166Z,3.00
2022-10-06T02:06:50.158Z,3.10
2022-10-06T02:07:50.217Z,3.40
2022-10-06T02:08:50.117Z,3.20
2022-10-06T02:09:50.163Z,3.10
2022-10-06T02:10:50.120Z,3.20
2022-10-06T02:11:50.096Z,3.30
2022-10-06T02:12:50.085Z,2.90
2022-10-06T02:13:50.105Z,3.00
2022-10-06T02:14:50.063Z,3.40
2022-10-06T02:15:50.194Z,3.10
2022-10-06T02:16:50.003Z,3.30
2022-10-06T02:17:50.174Z,3.10
2022-10-06T02:18:50.033Z,2.90
2022-10-06T02:19:49.986Z,3.30
2022-10-06T02:20:49.993Z,3.30
2022-10-06T02:21:49.993Z,3.40
2022-10-06T02:22:49.958Z,3.30
2022-10-06T02:23:49.943Z,3.00
2022-10-06T02:24:49.902Z,2.70
2022-10-06T02:25:49.951Z,3.10
2022-10-06T02:26:49.901Z,3.90
2022-10-06T02:27:49.957Z,3.20
2022-10-06T02:28:50.038Z,3.20
2022-10-06T02:29:49.891Z,3.30
2022-10-06T02:30:49.920Z,3.50
2022-10-06T02:31:49.872Z,3.40
2022-10-06T02:32:49.800Z,3.50
2022-10-06T02:33:49.817Z,3.50
2022-10-06T02:34:49.965Z,3.40
2022-10-06T02:35:49.788Z,3.70
2022-10-06T02:36:49.750Z,3.40
2022-10-06T02:37:49.763Z,3.40
2022-10-06T02:38:49.781Z,3.80
2022-10-06T02:39:49.758Z,3.10
2022-10-06T02:40:49.716Z,3.90
2022-10-06T02:41:49.689Z,3.20
2022-10-06T02:42:49.697Z,3.40
2022-10-06T02:43:49.658Z,3.30
2022-10-06T02:44:49.646Z,3.10
2022-10-06T02:45:49.648Z,3.10
2022-10-06T02:46:49.694Z,3.30
2022-10-06T02:47:49.696Z,3.80
2022-10-06T02:48:49.655Z,3.20
2022-10-06T02:49:49.628Z,3.60
2022-10-06T02:50:49.594Z,3.60
2022-10-06T02:51:49.555Z,3.50
2022-10-06T02:52:49.665Z,3.30
2022-10-06T02:53:49.563Z,3.30
2022-10-06T02:54:49.535Z,3.40
2022-10-06T02:55:49.527Z,3.50
2022-10-06T02:56:49.544Z,3.30
2022-10-06T02:57:49.513Z,3.30
2022-10-06T02:58:49.542Z,3.50
2022-10-06T02:59:49.454Z,3.30
2022-10-06T03:00:49.475Z,3.40
2022-10-06T03:01:49.567Z,3.50
2022-10-06T03:02:49.536Z,3.40
2022-10-06T03:03:49.412Z,3.40
2022-10-06T03:04:49.420Z,3.50
2022-10-06T03:05:49.441Z,3.50
2022-10-06T03:06:49.381Z,3.50
2022-10-06T03:07:49.379Z,3.50
2022-10-06T03:08:49.384Z,3.40
2022-10-06T03:09:49.331Z,3.60
2022-10-06T03:10:49.340Z,3.50
2022-10-06T03:11:49.329Z,3.80
2022-10-06T03:12:49.318Z,3.40
2022-10-06T03:13:49.290Z,3.10
2022-10-06T03:14:49.309Z,4.00
2022-10-06T03:15:49.295Z,3.50
2022-10-06T03:16:49.309Z,3.30
2022-10-06T03:17:49.234Z,3.60
2022-10-06T03:18:49.227Z,3.70
2022-10-06T03:19:49.326Z,3.50
2022-10-06T03:20:49.189Z,3.60
2022-10-06T03:21:49.195Z,3.20
2022-10-06T03:22:49.176Z,3.50
2022-10-06T03:23:49.170Z,3.60
2022-10-06T03:24:49.166Z,3.40
2022-10-06T03:25:49.156Z,3.40
2022-10-06T03:26:49.156Z,3.30
2022-10-06T03:27:49.145Z,3.30
2022-10-06T03:28:49.194Z,3.60
2022-10-06T03:29:49.095Z,3.70
2022-10-06T03:30:49.096Z,3.60
2022-10-06T03:31:49.119Z,3.60
2022-10-06T03:32:49.098Z,3.40
2022-10-06T03:33:49.028Z,3.50
2022-10-06T03:34:49.066Z,3.40
2022-10-06T03:35:48.994Z,3.50
2022-10-06T03:36:49.003Z,3.00
2022-10-06T03:37:48.996Z,3.60
2022-10-06T03:38:49.115Z,3.50
2022-10-06T03:39:48.964Z,3.30
2022-10-06T03:40:48.994Z,3.60
2022-10-06T03:41:48.935Z,3.40
2022-10-06T03:42:48.919Z,3.10
2022-10-06T03:43:48.901Z,3.70
2022-10-06T03:44:48.913Z,3.30
2022-10-06T03:45:48.900Z,3.60
2022-10-06T03:46:48.927Z,3.70
2022-10-06T03:47:48.870Z,3.70
2022-10-06T03:48:48.913Z,3.20
2022-10-06T03:49:48.850Z,3.60
2022-10-06T03:50:48.912Z,3.80
2022-10-06T03:51:48.791Z,4.20
2022-10-06T03:52:48.799Z,3.80
2022-10-06T03:53:48.771Z,3.70
2022-10-06T03:54:48.786Z,3.80
2022-10-06T03:55:48.786Z,3.80
2022-10-06T03:56:48.728Z,3.80
2022-10-06T03:57:48.757Z,4.20
2022-10-06T03:58:48.735Z,3.80
2022-10-06T03:59:48.737Z,3.40
2022-10-06T04:00:48.792Z,3.60
2022-10-06T04:01:48.829Z,3.50
2022-10-06T04:02:48.667Z,3.50
2022-10-06T04:03:48.666Z,4.20
2022-10-06T04:04:48.665Z,3.60
2022-10-06T04:05:48.626Z,4.10
2022-10-06T04:06:48.626Z,3.30
2022-10-06T04:07:48.626Z,3.60
2022-10-06T04:08:48.613Z,3.00
2022-10-06T04:09:48.574Z,3.80
2022-10-06T04:10:48.654Z,3.40
2022-10-06T04:11:48.547Z,3.30
2022-10-06T04:12:48.618Z,3.60
2022-10-06T04:13:48.527Z,3.40
2022-10-06T04:14:48.513Z,3.70
2022-10-06T04:15:48.488Z,3.40
2022-10-06T04:16:48.521Z,3.70
2022-10-06T04:17:48.467Z,3.50
2022-10-06T04:18:48.465Z,4.00
2022-10-06T04:19:48.451Z,3.40
2022-10-06T04:20:48.475Z,3.40
2022-10-06T04:21:48.478Z,4.00
2022-10-06T04:22:48.409Z,3.20
2022-10-06T04:23:48.396Z,3.10
2022-10-06T04:24:48.370Z,3.70
2022-10-06T04:25:50.472Z,3.30
2022-10-06T04:26:49.401Z,3.60
2022-10-06T04:27:48.377Z,3.50
2022-10-06T04:28:48.429Z,3.70
2022-10-06T04:29:48.342Z,3.30
2022-10-06T04:30:48.310Z,3.40
2022-10-06T04:31:48.408Z,3.50
2022-10-06T04:32:48.288Z,3.80
2022-10-06T04:33:48.262Z,3.30
2022-10-06T04:34:48.259Z,4.00
2022-10-06T04:35:48.228Z,3.70
2022-10-06T04:36:48.274Z,3.80
2022-10-06T04:37:48.217Z,3.70
2022-10-06T04:38:48.270Z,3.60
2022-10-06T04:39:48.196Z,3.40
2022-10-06T04:40:48.304Z,3.50
2022-10-06T04:41:48.214Z,3.70
2022-10-06T04:42:48.179Z,3.40
2022-10-06T04:43:48.147Z,3.40
2022-10-06T04:44:48.135Z,3.10
2022-10-06T04:45:48.155Z,3.90
2022-10-06T04:46:48.227Z,3.20
2022-10-06T04:47:48.149Z,3.30
2022-10-06T04:48:48.077Z,3.20
2022-10-06T04:49:48.077Z,3.40
2022-10-06T04:50:48.045Z,3.90
2022-10-06T04:51:48.076Z,3.70
2022-10-06T04:52:48.063Z,3.10
2022-10-06T04:53:48.003Z,3.80
2022-10-06T04:54:48.012Z,3.60
2022-10-06T04:55:48.061Z,3.20
2022-10-06T04:56:48.026Z,3.90
2022-10-06T04:57:47.983Z,3.50
2022-10-06T04:58:47.935Z,3.90
2022-10-06T04:59:47.943Z,3.70
2022-10-06T05:00:47.982Z,3.70
2022-10-06T05:01:48.054Z,3.50
2022-10-06T05:02:47.961Z,3.90
2022-10-06T05:03:47.891Z,3.80
2022-10-06T05:04:47.861Z,3.50
2022-10-06T05:05:47.890Z,3.80
2022-10-06T05:06:47.880Z,3.80
2022-10-06T05:07:47.866Z,3.60
2022-10-06T05:08:47.889Z,3.80
2022-10-06T05:09:47.811Z,3.80
2022-10-06T05:10:47.794Z,3.90
2022-10-06T05:11:47.805Z,3.50
2022-10-06T05:12:47.780Z,4.10
2022-10-06T05:13:47.760Z,3.90
2022-10-06T05:14:47.760Z,4.20
2022-10-06T05:15:47.730Z,4.10
2022-10-06T05:16:47.803Z,3.80
2022-10-06T05:17:47.697Z,4.10
2022-10-06T05:18:47.717Z,3.90
2022-10-06T05:19:47.688Z,3.80
2022-10-06T05:20:47.656Z,3.70
2022-10-06T05:21:47.739Z,3.90
2022-10-06T05:22:47.664Z,4.10
2022-10-06T05:23:47.626Z,3.90
2022-10-06T05:24:47.610Z,4.00
2022-10-06T05:25:47.708Z,3.80
2022-10-06T05:26:47.599Z,3.10
2022-10-06T05:27:47.585Z,3.90
2022-10-06T05:28:47.744Z,4.70
2022-10-06T05:29:47.557Z,3.40
2022-10-06T05:30:47.533Z,3.80
2022-10-06T05:31:47.572Z,3.80
2022-10-06T05:32:47.544Z,3.60
2022-10-06T05:33:47.503Z,3.10
2022-10-06T05:34:47.483Z,3.50
2022-10-06T05:35:47.475Z,2.90
2022-10-06T05:36:47.463Z,3.40
2022-10-06T05:37:47.458Z,2.90
2022-10-06T05:38:47.443Z,3.30
2022-10-06T05:39:47.422Z,3.40
2022-10-06T05:40:47.421Z,3.20
2022-10-06T05:41:47.401Z,3.10
2022-10-06T05:42:47.390Z,3.50
2022-10-06T05:43:47.380Z,3.60
2022-10-06T05:44:47.357Z,3.50
2022-10-06T05:45:47.412Z,3.30
2022-10-06T05:46:47.340Z,3.20
2022-10-06T05:47:47.319Z,3.20
2022-10-06T05:48:47.297Z,3.30
2022-10-06T05:49:47.287Z,3.20
2022-10-06T05:50:47.363Z,3.20
2022-10-06T05:51:47.278Z,2.90
2022-10-06T05:52:47.258Z,3.10
2022-10-06T05:53:47.257Z,3.40
2022-10-06T05:54:47.267Z,3.00
2022-10-06T05:55:47.209Z,3.50
2022-10-06T05:56:47.246Z,3.30
2022-10-06T05:57:47.187Z,3.10
2022-10-06T05:58:47.173Z,3.30
2022-10-06T05:59:47.208Z,3.70
2022-10-06T06:00:47.147Z,3.40
2022-10-06T06:01:47.664Z,3.20
2022-10-06T06:02:47.303Z,3.20
2022-10-06T06:03:47.150Z,3.30
2022-10-06T06:04:47.161Z,3.20
2022-10-06T06:05:47.110Z,3.20
2022-10-06T06:06:47.080Z,2.90
2022-10-06T06:07:47.074Z,3.30
2022-10-06T06:08:47.094Z,3.10
2022-10-06T06:09:47.053Z,3.20
2022-10-06T06:10:47.023Z,3.20
2022-10-06T06:11:47.062Z,3.10
2022-10-06T06:12:47.015Z,3.00
2022-10-06T06:13:46.983Z,3.10
2022-10-06T06:14:47.075Z,3.40
2022-10-06T06:15:46.971Z,3.00
2022-10-06T06:16:47.012Z,3.20
2022-10-06T06:17:46.934Z,3.20
2022-10-06T06:18:46.923Z,3.60
2022-10-06T06:19:47.032Z,4.00
2022-10-06T06:20:46.971Z,3.40
2022-10-06T06:21:46.888Z,3.20
2022-10-06T06:22:46.899Z,3.20
2022-10-06T06:23:46.921Z,2.90
2022-10-06T06:24:46.901Z,3.30
2022-10-06T06:25:46.869Z,3.00
2022-10-06T06:26:46.830Z,3.10
2022-10-06T06:27:46.799Z,3.00
2022-10-06T06:28:46.923Z,3.10
2022-10-06T06:29:46.831Z,2.90
2022-10-06T06:30:46.781Z,3.00
2022-10-06T06:31:46.829Z,2.70
2022-10-06T06:32:46.737Z,2.80
2022-10-06T06:33:46.837Z,3.40
2022-10-06T06:34:46.716Z,3.10
2022-10-06T06:35:46.696Z,2.80
2022-10-06T06:36:46.750Z,2.40
2022-10-06T06:37:46.686Z,2.90
2022-10-06T06:38:46.699Z,2.50
2022-10-06T06:39:46.658Z,2.70
2022-10-06T06:40:46.655Z,3.50
2022-10-06T06:41:46.639Z,4.80
2022-10-06T06:42:50.278Z,2.90
2022-10-06T06:43:47.635Z,2.70
2022-10-06T06:44:46.596Z,2.60
2022-10-06T06:45:46.644Z,2.10
2022-10-06T06:46:46.554Z,2.80
2022-10-06T06:47:46.563Z,2.60
2022-10-06T06:48:46.555Z,2.30
2022-10-06T06:49:46.551Z,2.30
2022-10-06T06:50:46.502Z,2.20
2022-10-06T06:51:46.512Z,3.80
2022-10-06T06:52:46.533Z,3.50
2022-10-06T06:53:46.473Z,3.40
2022-10-06T06:54:46.498Z,2.20
2022-10-06T06:55:46.545Z,2.10
2022-10-06T06:56:46.449Z,2.00
2022-10-06T06:57:46.423Z,2.20
2022-10-06T06:58:46.411Z,2.50
2022-10-06T06:59:46.422Z,2.50
2022-10-06T07:00:46.394Z,2.80
2022-10-06T07:01:46.514Z,2.70
2022-10-06T07:02:46.358Z,2.40
2022-10-06T07:03:57.109Z,2.80
2022-10-06T07:04:47.358Z,2.70
2022-10-06T07:05:46.319Z,2.60
2022-10-06T07:06:46.347Z,2.50
2022-10-06T07:07:46.338Z,2.70
2022-10-06T07:08:46.290Z,2.80
2022-10-06T07:09:46.279Z,2.80
2022-10-06T07:10:46.304Z,2.80
2022-10-06T07:11:46.258Z,3.00
2022-10-06T07:12:46.228Z,3.30
2022-10-06T07:13:46.231Z,2.70
2022-10-06T07:14:46.226Z,3.00
2022-10-06T07:15:46.314Z,2.80
2022-10-06T07:16:46.184Z,2.80
2022-10-06T07:17:46.185Z,2.50
2022-10-06T07:18:46.158Z,2.80
2022-10-06T07:19:46.190Z,3.10
2022-10-06T07:20:46.135Z,2.70
2022-10-06T07:21:46.117Z,2.80
2022-10-06T07:22:46.096Z,3.10
2022-10-06T07:23:46.138Z,2.80
2022-10-06T07:24:46.080Z,2.70
2022-10-06T07:25:46.105Z,2.70
2022-10-06T07:26:46.086Z,3.00
2022-10-06T07:27:46.100Z,5.20
2022-10-06T07:28:46.052Z,3.10
2022-10-06T07:29:46.052Z,3.30
2022-10-06T07:30:46.003Z,3.90
2022-10-06T07:31:46.074Z,3.00
2022-10-06T07:32:45.973Z,3.00
2022-10-06T07:33:45.961Z,2.60
2022-10-06T07:34:45.986Z,2.60
2022-10-06T07:35:45.958Z,2.70
2022-10-06T07:36:46.060Z,2.90
2022-10-06T07:37:45.917Z,3.00
2022-10-06T07:38:45.900Z,3.20
2022-10-06T07:39:45.907Z,3.00
2022-10-06T07:40:46.455Z,3.00
2022-10-06T07:41:46.919Z,3.00
2022-10-06T07:42:45.839Z,2.70
2022-10-06T07:43:45.839Z,2.80
2022-10-06T07:44:45.856Z,3.10
2022-10-06T07:45:45.921Z,3.00
2022-10-06T07:46:45.835Z,3.20
2022-10-06T07:47:45.791Z,3.10
2022-10-06T07:48:45.788Z,2.60
2022-10-06T07:49:45.848Z,2.80
2022-10-06T07:50:45.779Z,2.90
2022-10-06T07:51:45.726Z,3.30
2022-10-06T07:52:45.737Z,3.10
2022-10-06T07:53:45.697Z,3.30
2022-10-06T07:54:45.725Z,2.30
2022-10-06T07:55:45.708Z,2.40
2022-10-06T07:56:45.701Z,2.70
2022-10-06T07:57:45.745Z,2.70
2022-10-06T07:58:45.670Z,2.80
2022-10-06T07:59:45.698Z,2.40
2022-10-06T08:00:45.642Z,2.40
2022-10-06T08:01:45.671Z,2.60
2022-10-06T08:02:45.631Z,2.40
2022-10-06T08:03:45.582Z,1.80
2022-10-06T08:04:45.668Z,2.20
2022-10-06T08:05:45.554Z,2.00
2022-10-06T08:06:45.697Z,1.80
2022-10-06T08:07:45.593Z,2.30
2022-10-06T08:08:49.025Z,1.90
2022-10-06T08:09:46.576Z,2.10
2022-10-06T08:10:45.586Z,2.10
2022-10-06T08:11:45.490Z,2.00
2022-10-06T08:13:45.462Z,1.80
2022-10-06T08:14:45.601Z,2.20
2022-10-06T08:15:45.488Z,1.70
2022-10-06T08:16:45.431Z,1.50
2022-10-06T08:17:45.402Z,2.20
2022-10-06T08:18:47.060Z,1.50
2022-10-06T08:19:45.491Z,1.60
2022-10-06T08:20:46.322Z,1.50
2022-10-06T08:21:45.359Z,1.70
2022-10-06T08:22:45.360Z,2.10
2022-10-06T08:23:45.329Z,1.90
2022-10-06T08:25:04.839Z,1.70
2022-10-06T08:25:46.583Z,2.20
2022-10-06T08:26:45.281Z,2.10
2022-10-06T08:27:47.195Z,2.40
2022-10-06T08:28:45.376Z,1.60
2022-10-06T08:29:45.301Z,2.20
2022-10-06T08:30:45.248Z,1.80
2022-10-06T08:31:45.351Z,2.00
2022-10-06T08:32:45.226Z,1.70
2022-10-06T08:33:45.220Z,1.70
2022-10-06T08:34:45.185Z,1.60
2022-10-06T08:35:45.189Z,1.70
2022-10-06T08:36:56.961Z,1.60
2022-10-06T08:37:46.166Z,1.70
2022-10-06T08:38:45.146Z,1.70
2022-10-06T08:39:45.132Z,1.80
2022-10-06T08:40:45.130Z,1.50
2022-10-06T08:41:45.111Z,1.80
2022-10-06T08:42:45.122Z,1.70
2022-10-06T08:43:45.074Z,1.70
2022-10-06T08:44:45.131Z,1.50
2022-10-06T08:45:45.229Z,1.60
2022-10-06T08:46:45.051Z,1.50
2022-10-06T08:47:45.084Z,1.50
2022-10-06T08:48:45.012Z,1.50
2022-10-06T08:49:45.064Z,1.50
2022-10-06T08:50:45.024Z,1.20
2022-10-06T08:51:44.974Z,1.20
2022-10-06T08:52:44.983Z,1.50
2022-10-06T08:53:44.962Z,1.30
2022-10-06T08:54:45.093Z,1.40
2022-10-06T08:55:44.931Z,1.30
2022-10-06T08:56:44.925Z,1.60
2022-10-06T08:57:44.908Z,1.40
2022-10-06T08:58:44.904Z,1.60
2022-10-06T08:59:44.887Z,1.30
2022-10-06T09:00:44.866Z,1.20
2022-10-06T09:01:44.913Z,1.20
2022-10-06T09:02:45.084Z,1.20
2022-10-06T09:03:44.972Z,1.30
2022-10-06T09:04:44.829Z,1.20
2022-10-06T09:05:44.788Z,1.90
2022-10-06T09:06:44.822Z,1.10
2022-10-06T09:07:44.769Z,1.30
2022-10-06T09:08:44.795Z,1.10
2022-10-06T09:09:44.745Z,0.90
2022-10-06T09:10:44.728Z,1.50
2022-10-06T09:11:44.761Z,1.40
2022-10-06T09:12:44.815Z,1.20
2022-10-06T09:13:44.696Z,1.30
2022-10-06T09:14:44.700Z,1.70
2022-10-06T09:15:44.710Z,1.30
2022-10-06T09:16:44.791Z,1.30
2022-10-06T09:17:44.707Z,1.30
2022-10-06T09:19:03.880Z,1.30
2022-10-06T09:19:45.616Z,1.90
2022-10-06T09:20:44.708Z,1.40
2022-10-06T09:21:44.611Z,1.30
2022-10-06T09:22:44.610Z,1.30
2022-10-06T09:23:44.578Z,1.50
2022-10-06T09:24:47.379Z,0.90
2022-10-06T09:25:44.549Z,1.30
2022-10-06T09:26:44.536Z,1.50
2022-10-06T09:27:44.524Z,1.10
2022-10-06T09:28:44.569Z,1.20
2022-10-06T09:29:44.517Z,1.20
2022-10-06T09:30:44.501Z,1.20
2022-10-06T09:31:44.589Z,1.20
2022-10-06T09:32:44.495Z,1.30
2022-10-06T09:33:44.465Z,1.10
2022-10-06T09:34:44.454Z,1.10
2022-10-06T09:35:44.419Z,1.00
2022-10-06T09:36:44.439Z,1.20
2022-10-06T09:37:44.382Z,1.00
2022-10-06T09:38:44.391Z,1.10
2022-10-06T09:39:44.398Z,1.20
2022-10-06T09:40:44.365Z,1.30
2022-10-06T09:41:44.361Z,1.50
2022-10-06T09:42:44.332Z,1.10
2022-10-06T09:43:44.334Z,1.00
2022-10-06T09:44:44.852Z,1.10
2022-10-06T09:45:44.288Z,1.10
2022-10-06T09:46:44.301Z,1.00
2022-10-06T09:47:44.269Z,1.40
2022-10-06T09:48:44.262Z,1.30
2022-10-06T09:49:44.339Z,0.90
2022-10-06T09:50:44.279Z,1.20
2022-10-06T09:51:44.235Z,1.10
2022-10-06T09:52:44.238Z,1.10
2022-10-06T09:53:44.387Z,0.90
2022-10-06T09:54:45.218Z,1.00
2022-10-06T09:55:44.235Z,1.10
2022-10-06T09:56:44.136Z,1.40
2022-10-06T09:57:44.150Z,1.30
2022-10-06T09:58:44.133Z,1.20
2022-10-06T09:59:44.109Z,1.10
2022-10-06T10:00:44.131Z,1.40
2022-10-06T10:01:44.094Z,1.20
2022-10-06T10:02:44.205Z,1.00
2022-10-06T10:03:51.486Z,1.20
2022-10-06T10:04:49.471Z,1.30
2022-10-06T10:05:45.124Z,1.30
2022-10-06T10:06:44.114Z,1.50
2022-10-06T10:07:44.014Z,1.20
2022-10-06T10:08:44.021Z,1.30
2022-10-06T10:09:44.084Z,1.20
2022-10-06T10:10:44.023Z,1.20
2022-10-06T10:11:43.971Z,1.20
2022-10-06T10:12:44.074Z,1.20
2022-10-06T10:13:43.973Z,1.10
2022-10-06T10:14:43.984Z,1.30
2022-10-06T10:15:44.083Z,1.30
2022-10-06T10:16:43.951Z,1.20
2022-10-06T10:17:43.883Z,1.00
2022-10-06T10:18:43.884Z,1.10
2022-10-06T10:19:43.863Z,1.00
2022-10-06T10:20:43.861Z,1.20
2022-10-06T10:21:43.840Z,1.00
2022-10-06T10:22:43.830Z,1.20
2022-10-06T10:23:43.850Z,1.30
2022-10-06T10:24:43.798Z,0.90
2022-10-06T10:25:43.807Z,1.10
2022-10-06T10:26:43.790Z,1.50
2022-10-06T10:27:43.757Z,1.30
2022-10-06T10:28:43.898Z,1.10
2022-10-06T10:29:43.735Z,0.90
2022-10-06T10:30:43.730Z,1.40
2022-10-06T10:31:43.781Z,1.20
2022-10-06T10:32:43.730Z,1.00
2022-10-06T10:33:53.914Z,1.10
2022-10-06T10:34:44.760Z,0.90
2022-10-06T10:35:43.727Z,1.10
2022-10-06T10:36:43.695Z,1.20
2022-10-06T10:37:43.628Z,1.00
2022-10-06T10:38:43.638Z,1.20
2022-10-06T10:39:43.624Z,1.20
2022-10-06T10:40:43.605Z,1.20
2022-10-06T10:41:43.594Z,1.10
2022-10-06T10:42:43.587Z,1.20
2022-10-06T10:43:43.638Z,1.10
2022-10-06T10:44:43.564Z,1.30
2022-10-06T10:45:43.559Z,1.20
2022-10-06T10:46:43.584Z,1.10
2022-10-06T10:47:43.517Z,1.40
2022-10-06T10:48:43.523Z,1.20
2022-10-06T10:49:43.495Z,1.10
2022-10-06T10:50:43.481Z,1.30
2022-10-06T10:51:43.462Z,1.10
2022-10-06T10:52:43.463Z,1.00
2022-10-06T10:53:43.555Z,1.30
2022-10-06T10:54:43.423Z,1.30
2022-10-06T10:55:43.543Z,1.10
2022-10-06T10:56:43.412Z,1.40
2022-10-06T10:57:43.377Z,1.40
2022-10-06T10:58:43.376Z,1.20
2022-10-06T10:59:43.400Z,1.20
2022-10-06T11:00:43.379Z,1.10
2022-10-06T11:01:43.411Z,1.20
2022-10-06T11:02:43.496Z,1.30
2022-10-06T11:03:43.397Z,1.10
2022-10-06T11:04:43.300Z,1.30
2022-10-06T11:05:43.279Z,1.50
2022-10-06T11:06:43.322Z,1.40
2022-10-06T11:07:43.322Z,1.20
2022-10-06T11:08:43.269Z,1.30
2022-10-06T11:09:43.220Z,1.30
2022-10-06T11:10:43.233Z,1.30
2022-10-06T11:11:43.214Z,1.20
2022-10-06T11:12:43.227Z,1.50
2022-10-06T11:13:43.199Z,1.40
2022-10-06T11:14:43.203Z,1.40
2022-10-06T11:15:43.161Z,1.40
2022-10-06T11:16:43.167Z,1.40
2022-10-06T11:17:43.159Z,1.60
2022-10-06T11:18:43.155Z,1.60
2022-10-06T11:19:43.111Z,2.10
2022-10-06T11:20:43.085Z,1.70
2022-10-06T11:21:43.069Z,1.50
2022-10-06T11:22:43.153Z,1.20
2022-10-06T11:23:43.083Z,1.20
2022-10-06T11:24:43.051Z,1.20
2022-10-06T11:25:43.128Z,1.40
2022-10-06T11:26:43.112Z,1.40
2022-10-06T11:27:42.999Z,1.50
2022-10-06T11:28:43.080Z,1.50
2022-10-06T11:29:42.956Z,1.20
2022-10-06T11:30:42.977Z,1.10
2022-10-06T11:31:42.958Z,2.10
2022-10-06T11:32:42.946Z,1.20
2022-10-06T11:33:42.915Z,1.40
2022-10-06T11:34:42.894Z,1.30
2022-10-06T11:35:42.883Z,1.40
2022-10-06T11:36:42.917Z,1.20
2022-10-06T11:37:42.874Z,1.20
2022-10-06T11:38:42.883Z,1.20
2022-10-06T11:39:42.823Z,1.30
2022-10-06T11:40:42.824Z,1.40
2022-10-06T11:41:42.825Z,1.40
2022-10-06T11:42:42.800Z,1.40
2022-10-06T11:43:42.794Z,1.30
2022-10-06T11:44:42.793Z,1.30
2022-10-06T11:45:42.834Z,1.20
2022-10-06T11:46:45.156Z,1.30
2022-10-06T11:47:43.061Z,1.50
2022-10-06T11:48:42.741Z,1.40
2022-10-06T11:49:42.699Z,1.20
2022-10-06T11:50:42.738Z,1.70
2022-10-06T11:51:42.699Z,1.60
2022-10-06T11:52:43.661Z,1.20
2022-10-06T11:53:42.671Z,1.20
2022-10-06T11:54:42.653Z,1.30
2022-10-06T11:55:42.637Z,1.30
2022-10-06T11:56:42.693Z,1.30
2022-10-06T11:57:42.589Z,1.20
2022-10-06T11:58:42.944Z,1.50
2022-10-06T11:59:42.658Z,1.30
2022-10-06T12:00:42.569Z,1.40
2022-10-06T12:01:42.554Z,1.40
2022-10-06T12:02:42.630Z,1.10
2022-10-06T12:03:42.510Z,1.00
2022-10-06T12:04:42.507Z,1.40
2022-10-06T12:05:56.301Z,1.30
2022-10-06T12:06:43.505Z,1.20
2022-10-06T12:07:42.487Z,1.00
2022-10-06T12:08:42.541Z,1.30
2022-10-06T12:09:44.604Z,1.30
2022-10-06T12:10:42.446Z,1.20
2022-10-06T12:11:42.406Z,1.10
2022-10-06T12:12:42.417Z,1.10
2022-10-06T12:17:43.334Z,1.40
2022-10-06T12:18:42.318Z,1.20
2022-10-06T12:19:42.343Z,1.30
2022-10-06T12:20:42.303Z,1.70
2022-10-06T12:21:42.293Z,1.20
2022-10-06T12:22:42.285Z,1.30
2022-10-06T12:23:42.263Z,1.10
2022-10-06T12:24:42.274Z,1.10
2022-10-06T12:25:42.257Z,1.10
2022-10-06T12:26:42.234Z,1.00
2022-10-06T12:27:42.213Z,1.20
2022-10-06T12:28:42.268Z,1.50
2022-10-06T12:29:42.179Z,1.30
2022-10-06T12:30:42.225Z,1.20
2022-10-06T12:31:42.152Z,1.20
2022-10-06T12:32:42.210Z,1.60
2022-10-06T12:33:42.141Z,1.10
2022-10-06T12:34:42.130Z,1.10
2022-10-06T12:35:42.113Z,1.70
2022-10-06T12:36:44.965Z,1.00
2022-10-06T12:37:42.110Z,1.40
2022-10-06T12:38:42.078Z,1.20
2022-10-06T12:39:42.078Z,1.10
2022-10-06T12:40:42.067Z,1.30
2022-10-06T12:41:42.053Z,1.30
2022-10-06T12:42:42.028Z,1.40
2022-10-06T12:43:42.022Z,1.20
2022-10-06T12:44:41.988Z,1.30
2022-10-06T12:45:45.897Z,1.20
2022-10-06T12:46:41.992Z,1.20
2022-10-06T12:47:41.957Z,1.40
2022-10-06T12:48:41.948Z,1.00
2022-10-06T12:49:41.947Z,1.10
2022-10-06T12:50:41.918Z,1.30
2022-10-06T12:51:41.927Z,1.40
2022-10-06T12:52:41.897Z,1.20
2022-10-06T12:53:41.878Z,1.20
2022-10-06T12:54:41.886Z,1.10
2022-10-06T12:55:41.845Z,1.30
2022-10-06T12:56:41.845Z,1.30
2022-10-06T12:57:41.830Z,0.90
2022-10-06T12:58:41.817Z,1.10
2022-10-06T12:59:41.832Z,1.10
2022-10-06T13:00:41.814Z,1.40
2022-10-06T13:01:41.910Z,1.30
2022-10-06T13:02:41.784Z,1.20
2022-10-06T13:03:41.743Z,1.10
2022-10-06T13:04:41.753Z,1.10
2022-10-06T13:05:41.753Z,1.30
2022-10-06T13:06:41.704Z,1.10
2022-10-06T13:07:41.702Z,1.20
2022-10-06T13:08:41.685Z,1.50
2022-10-06T13:09:41.696Z,1.10
2022-10-06T13:10:41.682Z,1.20
2022-10-06T13:11:41.672Z,1.40
2022-10-06T13:12:41.690Z,1.10
2022-10-06T13:13:41.611Z,1.30
2022-10-06T13:14:41.611Z,1.10
2022-10-06T13:15:41.623Z,1.20
2022-10-06T13:16:41.677Z,1.30
2022-10-06T13:17:41.571Z,1.00
2022-10-06T13:18:41.618Z,1.20
2022-10-06T13:19:41.556Z,1.20
2022-10-06T13:20:41.552Z,1.40
2022-10-06T13:21:41.514Z,1.20
2022-10-06T13:22:41.652Z,1.10
2022-10-06T13:23:41.503Z,1.10